Time;durP1;ratioP1;P1;durP2;ratioP2;P2;SDS_P1;SDS_P2;PMS_P1;PMS_P2;Temp;Humidity;BMP_temperature;BMP_pressure;BME280_temperature;BME280_humidity;BME280_pressure;Samples;Min_cycle;Max_cycle;Signal;HPM_P1;HPM_P2
2022/01/30 00:01:37;;;;;;;28.10;5.00;;;6.20;99.90;;;;;;5033008;28;20033;-89
2022/01/30 00:04:03;;;;;;;21.92;4.72;;;6.20;99.90;;;;;;5029603;28;20043;-89
2022/01/30 00:06:29;;;;;;;23.98;4.32;;;6.30;99.90;;;;;;5017907;28;20490;-89
2022/01/30 00:08:55;;;;;;;16.77;3.90;;;7.30;99.90;;;;;;5013790;28;20124;-88
2022/01/30 00:11:25;;;;;;;16.73;4.07;;;;;;;;;;5004144;28;20522;-87
2022/01/30 00:13:51;;;;;;;19.25;3.83;;;6.10;99.90;;;;;;5029879;28;20045;-88
2022/01/30 00:16:19;;;;;;;24.65;4.25;;;6.80;99.90;;;;;;5014826;28;20037;-88
2022/01/30 00:18:58;;;;;;;18.73;4.63;;;6.90;99.90;;;;;;4999419;28;20060;-90
2022/01/30 00:24:19;;;;;;;19.02;3.97;;;5.50;99.90;;;;;;5017379;28;20045;-90
2022/01/30 00:26:40;;;;;;;23.25;4.10;;;5.40;99.90;;;;;;5039873;28;20080;-89
2022/01/30 00:29:06;;;;;;;13.45;2.92;;;7.10;99.90;;;;;;5009915;28;20528;-89
2022/01/30 00:31:33;;;;;;;12.35;2.35;;;6.90;99.90;;;;;;5038912;28;20159;-90
2022/01/30 00:33:59;;;;;;;11.57;2.50;;;5.60;99.90;;;;;;5021224;28;20417;-89
2022/01/30 00:36:26;;;;;;;17.98;3.03;;;7.20;99.90;;;;;;5024570;28;20073;-88
2022/01/30 00:38:52;;;;;;;11.45;2.80;;;6.50;99.90;;;;;;5027055;28;20037;-90
2022/01/30 00:41:18;;;;;;;11.43;2.33;;;6.50;99.90;;;;;;5029490;28;20043;-88
2022/01/30 00:43:43;;;;;;;13.25;2.80;;;5.70;99.90;;;;;;5023702;28;20080;-90
2022/01/30 00:46:09;;;;;;;21.95;3.90;;;5.70;99.90;;;;;;5006414;28;20349;-88
2022/01/30 00:48:35;;;;;;;16.33;3.40;;;5.70;99.90;;;;;;5032162;28;20033;-90
2022/01/30 00:51:01;;;;;;;17.45;3.92;;;5.70;99.90;;;;;;5037471;28;20290;-89
2022/01/30 00:53:27;;;;;;;15.82;3.55;;;6.60;99.90;;;;;;5037262;28;20037;-88
2022/01/30 00:55:53;;;;;;;15.02;3.53;;;5.90;99.90;;;;;;5018000;28;20524;-89
2022/01/30 00:58:18;;;;;;;22.00;3.92;;;5.80;99.90;;;;;;5039604;28;20043;-89
2022/01/30 01:00:44;;;;;;;18.75;3.75;;;5.80;99.90;;;;;;5011700;28;20322;-89
2022/01/30 01:03:11;;;;;;;16.45;3.72;;;6.50;99.90;;;;;;5027187;28;20486;-89
2022/01/30 01:05:37;;;;;;;18.05;3.92;;;5.70;99.90;;;;;;5009656;28;20038;-89
2022/01/30 01:08:13;;;;;;;18.92;4.05;;;6.20;99.90;;;;;;5022251;28;20402;-89
2022/01/30 01:10:46;;;;;;;26.88;4.45;;;5.70;99.90;;;;;;5024507;28;20041;-89
2022/01/30 01:24:00;;;;;;;27.35;5.53;;;5.80;99.90;;;;;;5021141;28;20045;-89
2022/01/30 01:26:26;;;;;;;29.35;5.43;;;5.90;99.90;;;;;;5033861;28;20142;-90
2022/01/30 01:28:53;;;;;;;25.02;5.40;;;5.90;99.90;;;;;;5041071;28;20049;-90
2022/01/30 01:31:19;;;;;;;18.17;4.43;;;6.20;99.90;;;;;;5028602;28;20040;-89
2022/01/30 01:34:47;;;;;;;29.30;5.95;;;7.20;99.90;;;;;;5037345;28;20040;-90
2022/01/30 01:36:41;;;;;;;26.83;6.25;;;6.10;99.90;;;;;;5039722;28;20095;-89
2022/01/30 01:39:06;;;;;;;25.98;5.28;;;6.10;99.90;;;;;;5039490;28;20041;-90
2022/01/30 01:41:33;;;;;;;27.30;5.38;;;6.70;99.90;;;;;;5039817;28;20045;-90
2022/01/30 01:43:59;;;;;;;29.13;5.65;;;6.20;99.90;;;;;;5016250;28;20128;-89
2022/01/30 01:46:30;;;;;;;25.90;5.22;;;6.50;99.90;;;;;;5023478;28;20450;-89
2022/01/30 01:48:56;;;;;;;22.13;5.30;;;7.00;99.90;;;;;;5042758;28;20040;-89
2022/01/30 01:51:30;;;;;;;26.08;5.20;;;6.60;99.90;;;;;;5030633;28;20032;-89
2022/01/30 01:53:57;;;;;;;22.92;5.03;;;5.70;99.90;;;;;;5031846;28;20433;-89
2022/01/30 01:56:24;;;;;;;23.02;4.70;;;5.70;99.90;;;;;;5026019;28;20041;-89
2022/01/30 01:58:50;;;;;;;29.02;5.13;;;7.40;99.90;;;;;;5041044;28;20448;-89
2022/01/30 02:01:16;;;;;;;29.33;6.22;;;6.50;99.90;;;;;;5010154;28;20116;-89
2022/01/30 02:03:43;;;;;;;25.20;5.57;;;5.30;99.90;;;;;;5032924;28;20159;-88
2022/01/30 02:06:13;;;;;;;21.08;5.88;;;7.40;99.90;;;;;;5046402;28;20117;-89
2022/01/30 02:08:43;;;;;;;30.60;5.75;;;5.80;99.90;;;;;;5024973;28;20041;-89
2022/01/30 02:11:14;;;;;;;22.50;5.68;;;6.40;99.90;;;;;;5021484;28;20068;-88
2022/01/30 02:27:17;;;;;;;26.38;5.28;;;6.50;99.90;;;;;;5024222;28;20042;-88
2022/01/30 02:29:43;;;;;;;21.98;4.85;;;7.70;99.90;;;;;;5042875;28;20038;-88
2022/01/30 02:32:08;;;;;;;23.52;4.82;;;6.20;99.90;;;;;;5046033;28;20064;-89
2022/01/30 02:34:34;;;;;;;19.05;4.05;;;6.10;99.90;;;;;;5046914;28;20045;-89
2022/01/30 02:37:00;;;;;;;22.65;4.88;;;7.10;99.90;;;;;;5031861;28;20049;-88
2022/01/30 02:39:27;;;;;;;20.45;4.03;;;7.30;99.90;;;;;;5034223;28;20119;-87
2022/01/30 02:41:53;;;;;;;20.15;4.78;;;6.10;99.90;;;;;;5032693;28;20168;-90
2022/01/30 02:44:27;;;;;;;26.08;5.57;;;7.70;99.90;;;;;;5022194;28;20042;-89
2022/01/30 02:46:57;;;;;;;24.80;5.82;;;6.10;99.90;;;;;;5043142;28;20485;-89
2022/01/30 02:52:01;;;;;;;28.25;5.70;;;6.70;99.90;;;;;;5024667;28;20076;-89
2022/01/30 02:54:29;;;;;;;25.08;5.40;;;6.50;99.90;;;;;;5035513;28;20045;-90
2022/01/30 02:56:55;;;;;;;25.00;5.53;;;7.60;99.90;;;;;;5031479;28;20111;-89
2022/01/30 02:59:21;;;;;;;27.10;6.28;;;7.90;99.90;;;;;;5032059;28;20103;-89
2022/01/30 03:01:47;;;;;;;26.95;6.18;;;6.40;99.90;;;;;;5026894;28;20068;-88
2022/01/30 03:04:13;;;;;;;33.20;6.50;;;6.20;99.90;;;;;;5042995;28;20041;-88
2022/01/30 03:06:40;;;;;;;30.55;6.20;;;6.60;99.90;;;;;;5034771;28;20553;-89
2022/01/30 03:09:08;;;;;;;39.10;7.18;;;7.70;99.90;;;;;;5034446;28;20095;-89
2022/01/30 03:11:34;;;;;;;31.17;6.03;;;7.60;99.90;;;;;;5030399;28;20052;-89
2022/01/30 03:14:02;;;;;;;26.30;6.13;;;7.20;99.90;;;;;;5029927;28;20041;-88
2022/01/30 03:16:27;;;;;;;31.67;6.63;;;6.20;99.90;;;;;;5038211;28;20517;-89
2022/01/30 03:18:53;;;;;;;25.98;5.80;;;8.20;99.90;;;;;;4997796;28;20037;-88
2022/01/30 03:21:19;;;;;;;26.33;6.18;;;6.20;99.90;;;;;;5041188;28;20110;-88
2022/01/30 03:23:46;;;;;;;31.15;6.15;;;7.20;99.90;;;;;;5038004;28;20078;-90
2022/01/30 03:26:13;;;;;;;25.23;6.68;;;6.20;99.90;;;;;;5043771;28;20041;-89
2022/01/30 03:28:41;;;;;;;29.58;6.65;;;7.10;99.90;;;;;;5033734;28;20033;-89
2022/01/30 03:31:09;;;;;;;27.20;5.82;;;6.30;99.90;;;;;;5033330;28;20036;-89
2022/01/30 03:33:36;;;;;;;34.40;6.18;;;7.40;99.90;;;;;;5024823;28;20037;-89
2022/01/30 03:36:02;;;;;;;29.38;6.38;;;6.30;99.90;;;;;;5025958;28;20650;-89
2022/01/30 03:38:28;;;;;;;25.83;5.57;;;6.30;99.90;;;;;;5014693;28;20037;-88
2022/01/30 03:40:54;;;;;;;26.70;6.40;;;7.50;99.90;;;;;;5045568;28;20455;-89
2022/01/30 03:43:20;;;;;;;31.98;6.40;;;6.60;99.90;;;;;;5021471;28;20065;-89
2022/01/30 03:45:47;;;;;;;31.27;6.53;;;6.30;99.90;;;;;;5034442;28;20391;-87
2022/01/30 03:48:14;;;;;;;31.98;7.30;;;6.20;99.90;;;;;;5036770;28;20312;-88
2022/01/30 03:50:43;;;;;;;35.03;7.05;;;7.10;99.90;;;;;;5027517;28;20041;-89
2022/01/30 03:53:09;;;;;;;26.65;6.13;;;6.10;99.90;;;;;;5041179;28;20131;-87
2022/01/30 03:55:35;;;;;;;25.77;5.95;;;7.20;99.90;;;;;;5016735;28;20568;-89
2022/01/30 03:58:01;;;;;;;33.65;7.30;;;6.00;99.90;;;;;;5038198;28;20034;-87
2022/01/30 04:00:27;;;;;;;34.47;7.43;;;6.00;99.90;;;;;;5015340;28;20136;-88
2022/01/30 04:02:53;;;;;;;30.27;6.03;;;6.10;99.90;;;;;;5026870;28;20116;-88
2022/01/30 04:05:19;;;;;;;31.95;5.70;;;7.80;99.90;;;;;;5021334;28;20087;-88
2022/01/30 04:07:46;;;;;;;33.65;7.70;;;6.20;99.90;;;;;;5014634;28;20030;-89
2022/01/30 04:10:12;;;;;;;39.88;7.38;;;6.20;99.90;;;;;;5028006;28;20120;-88
2022/01/30 04:12:38;;;;;;;31.83;6.88;;;6.20;99.90;;;;;;5029355;28;20045;-88
2022/01/30 04:15:05;;;;;;;30.58;6.45;;;6.30;99.90;;;;;;5009214;28;20037;-89
2022/01/30 04:17:31;;;;;;;31.70;6.97;;;6.40;99.90;;;;;;5023113;28;20074;-89
2022/01/30 04:19:57;;;;;;;32.25;6.65;;;6.40;99.90;;;;;;5019019;28;20159;-89
2022/01/30 04:22:23;;;;;;;32.00;6.25;;;6.40;99.90;;;;;;5028077;28;20564;-89
2022/01/30 04:24:48;;;;;;;33.30;7.45;;;6.40;99.90;;;;;;5031824;28;20041;-89
2022/01/30 04:27:14;;;;;;;31.88;6.65;;;7.00;99.90;;;;;;5033790;28;20505;-89
2022/01/30 04:29:40;;;;;;;38.05;7.72;;;6.40;99.90;;;;;;5019926;28;20487;-89
2022/01/30 04:32:07;;;;;;;37.42;7.65;;;6.40;99.90;;;;;;5034702;28;20076;-89
2022/01/30 04:34:33;;;;;;;33.33;8.48;;;6.40;99.90;;;;;;5014906;28;20058;-89
2022/01/30 04:37:04;;;;;;;32.50;7.07;;;6.40;99.90;;;;;;5031573;28;20071;-88
2022/01/30 04:58:35;;;;;;;39.45;8.45;;;6.70;99.90;;;;;;5042389;28;20086;-88
2022/01/30 05:03:40;;;;;;;37.85;7.40;;;6.40;99.90;;;;;;5042443;28;20051;-89
2022/01/30 05:06:13;;;;;;;32.22;7.22;;;7.60;99.90;;;;;;4989616;28;20037;-89
2022/01/30 05:08:39;;;;;;;38.10;8.20;;;6.30;99.90;;;;;;5022194;28;20036;-88
2022/01/30 05:11:07;;;;;;;37.22;7.13;;;;;;;;;;5003949;28;20040;-88
2022/01/30 05:13:36;;;;;;;39.63;7.45;;;6.00;99.90;;;;;;5035963;28;20049;-88
2022/01/30 05:16:03;;;;;;;37.03;7.95;;;5.80;99.90;;;;;;5013014;28;20045;-88
2022/01/30 05:18:30;;;;;;;42.15;9.25;;;5.80;99.90;;;;;;5007289;28;20037;-89
2022/01/30 05:20:56;;;;;;;42.88;8.57;;;5.70;99.90;;;;;;5032109;28;20113;-88
2022/01/30 05:23:22;;;;;;;41.05;8.35;;;6.00;99.90;;;;;;5039119;28;20045;-88
2022/01/30 05:25:50;;;;;;;48.47;9.68;;;5.60;99.90;;;;;;5038718;28;20040;-88
2022/01/30 05:28:17;;;;;;;43.78;9.07;;;5.60;99.90;;;;;;5010064;28;20040;-88
2022/01/30 05:30:44;;;;;;;42.33;9.88;;;5.60;99.90;;;;;;5005926;28;20033;-89
2022/01/30 05:33:11;;;;;;;42.88;8.60;;;5.60;99.90;;;;;;5036543;28;20497;-88
2022/01/30 05:35:37;;;;;;;44.05;8.65;;;5.60;99.90;;;;;;5042626;28;20135;-90
2022/01/30 05:38:04;;;;;;;36.55;8.60;;;5.50;99.90;;;;;;5027547;28;20446;-88
2022/01/30 05:40:31;;;;;;;38.80;8.00;;;5.60;99.90;;;;;;5045765;28;20068;-88
2022/01/30 05:42:58;;;;;;;37.38;6.90;;;5.60;99.90;;;;;;5025023;28;20117;-89
2022/01/30 05:45:35;;;;;;;37.90;7.43;;;5.70;99.90;;;;;;5030499;28;20046;-89
2022/01/30 05:48:09;;;;;;;25.30;5.85;;;5.80;99.90;;;;;;5008355;28;20119;-89
2022/01/30 05:50:36;;;;;;;30.23;6.63;;;5.60;99.90;;;;;;5041386;28;20375;-88
2022/01/30 05:53:02;;;;;;;26.05;6.07;;;5.90;99.90;;;;;;5026862;28;20053;-88
2022/01/30 05:55:30;;;;;;;30.70;7.15;;;6.40;99.90;;;;;;5022773;28;20037;-89
2022/01/30 05:57:56;;;;;;;28.98;5.95;;;7.30;99.90;;;;;;5030643;28;20041;-88
2022/01/30 06:00:22;;;;;;;33.05;6.15;;;6.20;99.90;;;;;;5013801;28;20083;-88
2022/01/30 06:02:48;;;;;;;29.92;6.55;;;5.30;99.90;;;;;;5043242;28;20136;-88
2022/01/30 06:05:16;;;;;;;24.02;6.35;;;5.40;99.90;;;;;;5026920;28;20092;-89
2022/01/30 06:08:27;;;;;;;37.03;7.47;;;6.90;99.90;;;;;;5028158;28;20486;-88
2022/01/30 06:10:33;;;;;;;39.05;6.88;;;6.60;99.90;;;;;;5042629;28;20055;-89
2022/01/30 06:12:59;;;;;;;30.52;6.68;;;5.50;99.90;;;;;;5032124;28;20116;-89
2022/01/30 06:15:25;;;;;;;33.20;7.05;;;5.50;99.90;;;;;;5024809;28;20052;-89
2022/01/30 06:17:51;;;;;;;40.38;7.70;;;5.50;99.90;;;;;;5044445;28;20037;-88
2022/01/30 06:20:16;;;;;;;29.17;7.63;;;5.40;99.90;;;;;;4997927;28;20045;-90
2022/01/30 06:22:42;;;;;;;40.20;7.75;;;6.30;99.90;;;;;;5017051;28;20494;-89
2022/01/30 06:25:09;;;;;;;32.58;6.53;;;6.30;99.90;;;;;;5026121;28;20048;-89
2022/01/30 06:27:35;;;;;;;44.58;8.43;;;5.60;99.90;;;;;;5034411;28;20071;-89
2022/01/30 06:30:03;;;;;;;37.45;7.22;;;6.20;99.90;;;;;;5037879;28;20034;-89
2022/01/30 06:32:28;;;;;;;34.92;8.75;;;7.00;99.90;;;;;;5017550;28;20041;-89
2022/01/30 06:34:54;;;;;;;40.15;8.35;;;6.90;99.90;;;;;;4996468;28;20056;-89
2022/01/30 06:37:20;;;;;;;35.35;7.97;;;5.80;99.90;;;;;;5019164;28;20052;-89
2022/01/30 06:39:46;;;;;;;34.85;7.13;;;7.10;99.90;;;;;;5030333;28;20037;-89
2022/01/30 06:42:12;;;;;;;32.53;7.53;;;6.90;99.90;;;;;;5044567;28;20524;-90
2022/01/30 06:44:38;;;;;;;37.88;8.48;;;6.00;99.90;;;;;;5028136;28;20558;-89
2022/01/30 06:47:05;;;;;;;26.95;6.43;;;7.20;99.90;;;;;;5011768;28;20474;-88
2022/01/30 06:49:31;;;;;;;31.25;6.38;;;6.00;99.90;;;;;;5034322;28;20119;-88
2022/01/30 06:51:56;;;;;;;34.22;7.47;;;7.40;99.90;;;;;;5028046;28;20041;-88
2022/01/30 06:54:22;;;;;;;30.35;7.15;;;6.00;99.90;;;;;;5012722;28;20029;-90
2022/01/30 06:56:48;;;;;;;35.72;8.23;;;6.70;99.90;;;;;;5036931;28;20506;-89
2022/01/30 06:59:14;;;;;;;36.65;8.70;;;7.10;99.90;;;;;;5026714;28;20124;-91
2022/01/30 07:01:39;;;;;;;33.20;7.47;;;7.40;99.90;;;;;;5038698;28;20124;-89
2022/01/30 07:04:06;;;;;;;32.80;8.10;;;6.00;99.90;;;;;;5012406;28;20037;-88
2022/01/30 07:06:32;;;;;;;33.63;6.68;;;5.90;99.90;;;;;;5040158;28;20120;-89
2022/01/30 07:08:57;;;;;;;31.73;6.70;;;6.60;99.90;;;;;;5013726;28;20120;-89
2022/01/30 07:11:23;;;;;;;30.77;6.78;;;6.00;99.90;;;;;;5037904;28;20041;-89
2022/01/30 07:13:49;;;;;;;39.03;7.75;;;6.00;99.90;;;;;;5018079;28;20037;-88
2022/01/30 07:16:15;;;;;;;28.40;6.47;;;6.10;99.90;;;;;;5028497;28;20091;-89
2022/01/30 07:18:42;;;;;;;30.63;6.80;;;6.40;99.90;;;;;;5010500;28;20057;-89
2022/01/30 07:21:09;;;;;;;30.45;6.53;;;6.10;99.90;;;;;;5028851;28;20160;-89
2022/01/30 07:23:36;;;;;;;23.55;6.28;;;6.70;99.90;;;;;;5045937;28;20052;-89
2022/01/30 07:26:02;;;;;;;31.50;5.88;;;6.00;99.90;;;;;;5038752;28;20048;-89
2022/01/30 07:28:28;;;;;;;27.27;5.75;;;6.10;99.90;;;;;;5013778;28;20033;-89
2022/01/30 07:30:54;;;;;;;25.15;4.80;;;7.20;99.90;;;;;;5038459;28;20033;-89
2022/01/30 07:33:20;;;;;;;29.85;6.70;;;7.00;99.90;;;;;;5017328;28;20060;-88
2022/01/30 07:35:49;;;;;;;27.48;5.32;;;7.00;99.90;;;;;;5032884;28;20102;-88
2022/01/30 07:38:16;;;;;;;25.98;5.47;;;6.50;99.90;;;;;;5033849;28;20071;-88
2022/01/30 07:40:42;;;;;;;30.02;6.63;;;6.10;99.90;;;;;;5044072;28;20070;-88
2022/01/30 07:43:10;;;;;;;25.25;6.60;;;6.60;99.90;;;;;;5049893;28;20052;-87
2022/01/30 07:45:35;;;;;;;26.08;6.10;;;6.10;99.90;;;;;;5050437;28;20551;-88
2022/01/30 07:48:02;;;;;;;25.40;6.22;;;6.40;99.90;;;;;;5012354;28;20037;-88
2022/01/30 07:50:28;;;;;;;29.05;5.72;;;6.20;99.90;;;;;;5030702;28;20037;-87
2022/01/30 07:52:54;;;;;;;24.73;5.93;;;6.20;99.90;;;;;;5013609;28;20044;-88
2022/01/30 07:55:20;;;;;;;33.17;6.32;;;6.20;99.90;;;;;;5035539;28;20192;-88
2022/01/30 07:57:46;;;;;;;27.63;6.30;;;7.20;99.90;;;;;;5046687;28;20040;-88
2022/01/30 08:00:12;;;;;;;28.20;5.88;;;6.20;99.90;;;;;;5025418;28;20248;-88
2022/01/30 08:02:38;;;;;;;36.60;7.53;;;6.20;99.90;;;;;;5032813;28;20048;-88
2022/01/30 08:05:04;;;;;;;30.52;7.40;;;6.80;99.90;;;;;;5047900;28;20524;-88
2022/01/30 08:07:31;;;;;;;35.88;7.25;;;6.20;99.90;;;;;;5027173;28;20509;-88
2022/01/30 08:09:57;;;;;;;37.70;7.75;;;6.20;99.90;;;;;;5016068;28;20467;-87
2022/01/30 08:12:23;;;;;;;37.90;7.75;;;6.20;99.90;;;;;;5035257;28;20036;-87
2022/01/30 08:14:49;;;;;;;34.47;7.13;;;7.10;99.90;;;;;;5041268;28;20171;-89
2022/01/30 08:17:20;;;;;;;44.45;7.63;;;7.00;99.90;;;;;;5004070;28;20040;-87
2022/01/30 08:19:47;;;;;;;45.90;7.65;;;7.20;99.90;;;;;;5028580;28;20069;-88
2022/01/30 08:22:13;;;;;;;41.72;8.13;;;7.60;99.90;;;;;;5011304;28;20164;-88
2022/01/30 08:24:39;;;;;;;36.83;7.78;;;6.20;99.90;;;;;;5045485;28;20045;-88
2022/01/30 08:27:06;;;;;;;31.23;7.40;;;6.20;99.90;;;;;;5036666;28;20038;-88
2022/01/30 08:29:31;;;;;;;30.38;7.70;;;6.90;99.90;;;;;;5012190;28;20037;-88
2022/01/30 08:31:58;;;;;;;33.50;7.05;;;6.30;99.90;;;;;;5031762;28;20056;-88
2022/01/30 08:34:24;;;;;;;28.60;7.10;;;6.30;99.90;;;;;;5035647;28;20128;-89
2022/01/30 08:36:51;;;;;;;32.03;7.55;;;7.80;99.90;;;;;;5012667;28;20556;-88
2022/01/30 08:39:17;;;;;;;29.90;7.72;;;7.00;99.90;;;;;;5038947;28;20040;-88
2022/01/30 08:41:43;;;;;;;33.45;7.97;;;6.60;99.90;;;;;;5003888;28;20083;-89
2022/01/30 08:44:08;;;;;;;30.73;6.88;;;6.10;99.90;;;;;;5041864;28;20107;-90
2022/01/30 08:46:34;;;;;;;35.58;7.90;;;6.10;99.90;;;;;;5024269;28;20049;-90
2022/01/30 08:49:00;;;;;;;29.42;6.97;;;6.20;99.90;;;;;;5016757;28;20045;-89
2022/01/30 08:51:26;;;;;;;31.30;6.60;;;7.50;99.90;;;;;;5041826;28;20041;-90
2022/01/30 08:53:52;;;;;;;33.50;6.47;;;7.40;99.90;;;;;;5024313;28;20292;-88
2022/01/30 08:56:21;;;;;;;22.50;5.78;;;6.40;99.90;;;;;;5039641;28;20036;-88
2022/01/30 08:58:47;;;;;;;29.40;7.00;;;6.40;99.90;;;;;;5035773;28;20045;-89
2022/01/30 09:01:13;;;;;;;44.75;8.43;;;7.80;99.90;;;;;;5023370;28;20055;-89
2022/01/30 09:03:40;;;;;;;31.75;7.65;;;6.30;99.90;;;;;;5010576;28;20041;-89
2022/01/30 09:06:05;;;;;;;26.75;6.00;;;7.30;99.90;;;;;;5006380;28;20109;-89
2022/01/30 09:08:31;;;;;;;32.00;7.60;;;6.30;99.90;;;;;;5028167;28;20506;-89
2022/01/30 09:10:57;;;;;;;38.72;7.40;;;6.30;99.90;;;;;;5019666;28;20037;-89
2022/01/30 09:13:24;;;;;;;30.95;7.72;;;6.30;99.90;;;;;;5004917;28;20028;-88
2022/01/30 09:15:56;;;;;;;36.30;8.18;;;7.70;99.90;;;;;;5008965;28;20426;-89
2022/01/30 09:18:22;;;;;;;34.15;7.05;;;7.00;99.90;;;;;;5027699;28;20044;-89
2022/01/30 09:20:48;;;;;;;31.70;6.80;;;6.70;99.90;;;;;;5002154;28;20132;-88
2022/01/30 09:23:14;;;;;;;34.00;7.20;;;6.70;99.90;;;;;;5023041;28;20095;-89
2022/01/30 09:25:40;;;;;;;30.52;7.18;;;6.70;99.90;;;;;;5007551;28;20120;-89
2022/01/30 09:28:06;;;;;;;32.92;5.85;;;6.70;99.90;;;;;;5028987;28;20125;-89
2022/01/30 09:30:32;;;;;;;36.92;6.43;;;6.60;99.90;;;;;;5031067;28;20046;-89
2022/01/30 09:32:59;;;;;;;27.15;5.75;;;8.60;99.90;;;;;;5038560;28;20095;-89
2022/01/30 09:35:24;;;;;;;33.35;6.80;;;6.50;99.90;;;;;;5043108;28;20085;-89
2022/01/30 09:37:51;;;;;;;30.90;6.32;;;7.60;99.90;;;;;;5011309;28;20084;-88
2022/01/30 09:40:19;;;;;;;28.38;6.90;;;6.60;99.90;;;;;;5027986;28;20459;-89
2022/01/30 09:42:46;;;;;;;28.05;6.05;;;6.70;99.90;;;;;;5020848;28;20072;-88
2022/01/30 09:45:18;;;;;;;33.33;6.85;;;7.10;99.90;;;;;;5028905;28;20045;-89
2022/01/30 09:47:45;;;;;;;31.33;6.50;;;6.70;99.90;;;;;;5022894;28;20045;-89
2022/01/30 09:50:11;;;;;;;30.05;6.20;;;6.80;99.90;;;;;;5030256;28;20101;-90
2022/01/30 09:52:37;;;;;;;32.95;6.68;;;7.20;99.90;;;;;;5046000;28;20100;-88
2022/01/30 09:55:08;;;;;;;32.38;7.35;;;7.40;99.90;;;;;;5033182;28;20499;-89
2022/01/30 09:57:35;;;;;;;28.77;7.38;;;6.80;99.90;;;;;;5044750;28;20432;-88
2022/01/30 10:00:02;;;;;;;25.42;6.10;;;6.80;99.90;;;;;;5015413;28;20068;-89
2022/01/30 10:02:28;;;;;;;28.00;6.05;;;6.80;99.90;;;;;;5022184;28;20042;-89
2022/01/30 10:04:54;;;;;;;32.28;6.97;;;7.00;99.90;;;;;;5032451;28;20053;-90
2022/01/30 10:07:22;;;;;;;32.30;6.63;;;8.00;99.90;;;;;;5037542;28;20525;-91
2022/01/30 10:09:49;;;;;;;33.88;7.60;;;7.00;99.90;;;;;;5032637;28;20044;-89
2022/01/30 10:12:20;;;;;;;30.60;7.00;;;6.90;99.90;;;;;;5034616;28;20390;-89
2022/01/30 10:14:58;;;;;;;28.00;6.72;;;7.10;99.90;;;;;;5024735;28;20045;-89
2022/01/30 10:17:37;;;;;;;29.65;6.30;;;7.00;99.90;;;;;;5034043;28;20251;-88
2022/01/30 10:20:12;;;;;;;34.65;6.55;;;7.00;99.90;;;;;;5011150;28;20045;-89
2022/01/30 10:22:56;;;;;;;32.95;7.68;;;7.10;99.90;;;;;;5031889;28;20064;-89
2022/01/30 10:25:26;;;;;;;32.80;6.78;;;7.10;99.90;;;;;;5038919;28;20044;-89
2022/01/30 10:28:26;;;;;;;34.70;7.70;;;8.10;99.90;;;;;;5037574;28;20032;-88
2022/01/30 10:30:53;;;;;;;27.05;6.72;;;7.20;99.90;;;;;;5038182;28;20041;-89
2022/01/30 10:33:21;;;;;;;32.85;7.20;;;7.20;99.90;;;;;;5025812;28;20036;-89
2022/01/30 10:35:56;;;;;;;27.85;6.30;;;8.30;99.90;;;;;;5025473;28;20073;-90
2022/01/30 10:38:34;;;;;;;30.33;6.80;;;7.30;99.90;;;;;;5027988;28;20045;-89
2022/01/30 10:41:30;;;;;;;30.25;6.90;;;7.40;99.90;;;;;;5038037;28;20045;-89
2022/01/30 10:44:00;;;;;;;43.55;7.47;;;7.40;99.90;;;;;;5042022;28;20059;-89
2022/01/30 10:46:28;;;;;;;28.17;5.97;;;8.30;99.90;;;;;;5022071;28;20099;-89
2022/01/30 10:49:01;;;;;;;33.83;7.03;;;7.20;99.90;;;;;;5033924;28;20057;-88
2022/01/30 10:51:28;;;;;;;33.47;6.55;;;8.10;99.90;;;;;;5019160;28;20033;-89
2022/01/30 10:53:56;;;;;;;28.67;6.15;;;7.10;99.90;;;;;;5014181;28;20072;-88
2022/01/30 10:56:26;;;;;;;23.20;5.18;;;7.70;99.90;;;;;;5023058;28;20068;-88
2022/01/30 10:59:13;;;;;;;33.85;6.90;;;8.60;99.90;;;;;;5041736;28;20050;-88
2022/01/30 11:01:51;;;;;;;30.90;6.22;;;7.10;99.90;;;;;;5035445;28;20095;-89
2022/01/30 11:04:25;;;;;;;30.02;7.05;;;7.20;99.90;;;;;;5030859;28;20044;-89
2022/01/30 11:06:52;;;;;;;30.25;6.18;;;8.70;99.90;;;;;;5032152;28;20037;-89
2022/01/30 11:09:32;;;;;;;30.73;5.97;;;7.30;99.90;;;;;;5026235;28;20065;-89
2022/01/30 11:12:07;;;;;;;27.77;5.85;;;7.30;99.90;;;;;;5005844;28;20033;-89
2022/01/30 11:14:38;;;;;;;27.27;5.38;;;7.90;99.90;;;;;;5021663;28;20041;-89
2022/01/30 11:17:08;;;;;;;27.55;6.43;;;8.10;99.90;;;;;;5042429;28;20061;-87
2022/01/30 11:19:45;;;;;;;31.08;6.20;;;8.40;99.90;;;;;;5029982;28;20549;-89
2022/01/30 11:22:16;;;;;;;33.10;7.00;;;7.40;99.90;;;;;;5039694;28;20032;-91
2022/01/30 11:24:46;;;;;;;26.52;6.20;;;7.70;99.90;;;;;;5038248;28;20037;-89
2022/01/30 11:27:13;;;;;;;31.60;6.78;;;7.50;99.90;;;;;;5029633;28;20541;-87
2022/01/30 11:29:39;;;;;;;30.20;6.18;;;7.50;99.90;;;;;;5033704;28;20033;-89
2022/01/30 11:32:07;;;;;;;35.53;7.03;;;7.50;99.90;;;;;;5037367;28;20044;-88
2022/01/30 11:34:35;;;;;;;34.75;7.13;;;7.50;99.90;;;;;;5010538;28;20109;-90
2022/01/30 11:37:02;;;;;;;31.30;6.40;;;7.60;99.90;;;;;;5020001;28;20037;-87
2022/01/30 11:39:28;;;;;;;30.02;6.63;;;7.60;99.90;;;;;;5033353;28;20068;-88
2022/01/30 11:42:13;;;;;;;32.25;6.22;;;7.60;99.90;;;;;;5041006;28;20121;-89
2022/01/30 11:44:40;;;;;;;31.80;6.40;;;7.50;99.90;;;;;;5044320;28;20033;-89
2022/01/30 11:47:07;;;;;;;26.83;6.35;;;7.80;99.90;;;;;;5033580;28;20040;-90
2022/01/30 11:49:59;;;;;;;34.97;6.63;;;7.50;99.90;;;;;;5031127;28;20037;-89
2022/01/30 11:52:54;;;;;;;37.33;7.25;;;7.50;99.90;;;;;;5037110;28;20119;-89
2022/01/30 11:55:43;;;;;;;29.83;6.03;;;7.50;99.90;;;;;;5025537;28;20643;-89
2022/01/30 11:58:41;;;;;;;30.15;6.15;;;7.60;99.90;;;;;;5029982;28;20545;-89
2022/01/30 12:01:13;;;;;;;29.55;6.43;;;7.60;99.90;;;;;;5022833;28;20262;-89
2022/01/30 12:03:56;;;;;;;30.60;5.80;;;8.90;99.90;;;;;;5025954;28;20116;-90
2022/01/30 12:06:25;;;;;;;;;;;7.60;99.90;;;;;;5017464;28;20041;-89
2022/01/30 12:08:53;;;;;;;28.85;5.38;;;7.60;99.90;;;;;;5040653;28;19917;-88
2022/01/30 12:11:37;;;;;;;26.67;6.30;;;7.80;99.90;;;;;;5027057;28;20056;-89
2022/01/30 12:14:11;;;;;;;31.58;6.60;;;7.90;99.90;;;;;;5036838;28;20151;-89
2022/01/30 12:16:44;;;;;;;29.75;6.10;;;7.80;99.90;;;;;;5005575;28;20068;-88
2022/01/30 12:19:11;;;;;;;23.65;5.43;;;7.80;99.90;;;;;;5037941;28;20827;-90
2022/01/30 12:21:38;;;;;;;32.08;6.40;;;7.60;99.90;;;;;;5025534;28;20053;-89
2022/01/30 12:24:23;;;;;;;28.05;6.43;;;7.60;99.90;;;;;;5010007;28;20117;-89
2022/01/30 12:27:02;;;;;;;27.00;6.32;;;7.50;99.90;;;;;;5035740;28;20038;-89
2022/01/30 12:29:45;;;;;;;30.88;6.22;;;7.30;99.90;;;;;;5016593;28;20402;-89
2022/01/30 12:32:34;;;;;;;31.60;6.65;;;7.10;99.90;;;;;;5036142;28;20506;-88
2022/01/30 12:35:00;;;;;;;30.42;6.53;;;7.00;99.90;;;;;;5013309;28;20050;-90
2022/01/30 12:37:33;;;;;;;26.38;5.72;;;6.90;99.90;;;;;;5022010;28;20052;-89
2022/01/30 12:40:17;;;;;;;25.85;6.20;;;7.00;99.90;;;;;;5027435;28;20067;-89
2022/01/30 12:42:42;;;;;;;28.42;5.93;;;7.10;99.90;;;;;;5046601;28;20044;-88
2022/01/30 12:45:10;;;;;;;27.92;6.20;;;7.10;99.90;;;;;;5023063;28;20047;-90
2022/01/30 12:47:49;;;;;;;28.83;5.75;;;8.20;99.90;;;;;;5016249;28;20044;-88
2022/01/30 12:50:17;;;;;;;25.42;5.60;;;7.30;99.90;;;;;;5034510;28;20083;-89
2022/01/30 12:52:47;;;;;;;27.45;5.45;;;7.40;99.90;;;;;;5024447;28;20037;-89
2022/01/30 12:55:16;;;;;;;28.48;5.88;;;8.40;99.90;;;;;;5019532;28;20116;-85
2022/01/30 12:57:43;;;;;;;24.55;5.40;;;7.70;99.90;;;;;;5007550;28;20048;-89
2022/01/30 13:00:11;;;;;;;25.65;5.20;;;7.70;99.90;;;;;;5037555;28;20414;-87
2022/01/30 13:02:37;;;;;;;26.38;5.88;;;7.70;99.90;;;;;;5028747;28;20422;-90
2022/01/30 13:05:08;;;;;;;30.90;6.28;;;8.70;99.90;;;;;;5010335;28;20040;-88
2022/01/30 13:07:35;;;;;;;21.95;5.45;;;7.40;99.90;;;;;;5040618;28;20044;-88
2022/01/30 13:10:13;;;;;;;24.05;6.15;;;7.20;99.90;;;;;;5015983;28;20069;-88
2022/01/30 13:12:45;;;;;;;26.20;5.63;;;7.10;99.90;;;;;;5017000;28;20049;-88
2022/01/30 13:15:25;;;;;;;30.95;5.97;;;7.30;99.90;;;;;;5034482;28;20042;-87
2022/01/30 13:17:52;;;;;;;31.60;5.85;;;7.80;99.90;;;;;;5016690;28;20041;-89
2022/01/30 13:20:24;;;;;;;25.58;7.20;;;7.10;99.90;;;;;;5033810;28;21645;-88
2022/01/30 13:22:50;;;;;;;30.33;6.20;;;7.80;99.90;;;;;;5034655;28;20532;-88
2022/01/30 13:25:18;;;;;;;31.08;5.70;;;8.50;99.90;;;;;;5019724;28;20045;-88
2022/01/30 13:27:47;;;;;;;26.67;5.03;;;6.70;99.90;;;;;;5031293;28;20116;-88
2022/01/30 13:30:21;;;;;;;27.55;6.13;;;7.90;99.90;;;;;;5028689;28;20086;-88
2022/01/30 13:32:46;;;;;;;24.20;5.60;;;7.00;99.90;;;;;;5031706;28;20450;-88
2022/01/30 13:35:13;;;;;;;24.00;5.28;;;8.10;99.90;;;;;;5015914;28;20195;-88
2022/01/30 13:37:41;;;;;;;21.13;4.53;;;6.90;99.90;;;;;;5031517;28;20037;-88
2022/01/30 13:40:28;;;;;;;24.30;5.20;;;6.90;99.90;;;;;;5022180;28;20195;-89
2022/01/30 13:42:59;;;;;;;23.55;4.72;;;7.00;99.90;;;;;;5028474;28;20136;-88
2022/01/30 13:48:05;;;;;;;27.92;6.53;;;7.30;99.90;;;;;;5032648;28;20514;-87
2022/01/30 13:51:03;;;;;;;25.60;5.15;;;7.40;99.90;;;;;;5032253;28;20077;-88